sensor_id;sensor_type;location;lat;lon;timestamp;pressure;altitude;pressure_sealevel;temperature;humidity
35918;BME280;22011;59.912;30.300;2023-04-01T00:01:27;100382.22;;;1.42;76.61
35918;BME280;22011;59.912;30.300;2023-04-01T00:03:54;100387.94;;;1.36;76.79
35918;BME280;22011;59.912;30.300;2023-04-01T00:06:22;100381.13;;;1.33;76.80
35918;BME280;22011;59.912;30.300;2023-04-01T00:08:50;100377.28;;;1.26;76.77
35918;BME280;22011;59.912;30.300;2023-04-01T00:11:20;100378.97;;;1.27;77.61
35918;BME280;22011;59.912;30.300;2023-04-01T00:13:48;100377.28;;;1.26;77.23
35918;BME280;22011;59.912;30.300;2023-04-01T00:16:16;100378.00;;;1.28;76.97
35918;BME280;22011;59.912;30.300;2023-04-01T00:18:43;100378.63;;;1.31;76.25
35918;BME280;22011;59.912;30.300;2023-04-01T00:21:13;100379.00;;;1.38;76.22
35918;BME280;22011;59.912;30.300;2023-04-01T00:23:40;100376.47;;;1.37;76.20
35918;BME280;22011;59.912;30.300;2023-04-01T00:26:08;100379.94;;;1.37;76.78
35918;BME280;22011;59.912;30.300;2023-04-01T00:28:39;100381.38;;;1.41;77.19
35918;BME280;22011;59.912;30.300;2023-04-01T00:31:08;100377.09;;;1.40;77.04
35918;BME280;22011;59.912;30.300;2023-04-01T00:33:36;100376.84;;;1.43;76.78
35918;BME280;22011;59.912;30.300;2023-04-01T00:36:08;100377.69;;;1.44;77.07
35918;BME280;22011;59.912;30.300;2023-04-01T00:38:37;100376.47;;;1.37;76.74
35918;BME280;22011;59.912;30.300;2023-04-01T00:41:05;100381.63;;;1.38;77.04
35918;BME280;22011;59.912;30.300;2023-04-01T00:43:33;100381.63;;;1.38;77.19
35918;BME280;22011;59.912;30.300;2023-04-01T00:46:02;100375.91;;;1.44;76.99
35918;BME280;22011;59.912;30.300;2023-04-01T00:48:34;100374.94;;;1.45;76.83
35918;BME280;22011;59.912;30.300;2023-04-01T00:51:06;100368.97;;;1.43;76.93
35918;BME280;22011;59.912;30.300;2023-04-01T00:53:36;100380.44;;;1.42;76.20
35918;BME280;22011;59.912;30.300;2023-04-01T00:56:10;100383.06;;;1.42;76.06
35918;BME280;22011;59.912;30.300;2023-04-01T00:58:42;100372.56;;;1.42;76.37
35918;BME280;22011;59.912;30.300;2023-04-01T01:01:12;100375.53;;;1.38;76.63
35918;BME280;22011;59.912;30.300;2023-04-01T01:03:40;100370.41;;;1.36;76.39
35918;BME280;22011;59.912;30.300;2023-04-01T01:06:19;100366.47;;;1.42;76.75
35918;BME280;22011;59.912;30.300;2023-04-01T01:09:22;100361.09;;;1.43;77.04
35918;BME280;22011;59.912;30.300;2023-04-01T01:11:57;100365.50;;;1.31;77.18
35918;BME280;22011;59.912;30.300;2023-04-01T01:14:36;100372.91;;;1.38;76.75
35918;BME280;22011;59.912;30.300;2023-04-01T01:17:14;100364.06;;;1.39;76.44
35918;BME280;22011;59.912;30.300;2023-04-01T01:20:03;100375.53;;;1.38;76.28
35918;BME280;22011;59.912;30.300;2023-04-01T01:22:51;100379.72;;;1.40;76.35
35918;BME280;22011;59.912;30.300;2023-04-01T01:25:32;100372.78;;;1.39;76.74
35918;BME280;22011;59.912;30.300;2023-04-01T01:28:24;100364.91;;;1.39;76.35
35918;BME280;22011;59.912;30.300;2023-04-01T01:30:58;100364.31;;;1.36;75.79
35918;BME280;22011;59.912;30.300;2023-04-01T01:33:42;100369.94;;;1.42;75.83
35918;BME280;22011;59.912;30.300;2023-04-01T01:36:15;100374.09;;;1.34;75.41
35918;BME280;22011;59.912;30.300;2023-04-01T01:38:45;100370.75;;;1.31;74.65
35918;BME280;22011;59.912;30.300;2023-04-01T01:41:16;100370.75;;;1.31;75.50
35918;BME280;22011;59.912;30.300;2023-04-01T01:43:48;100369.91;;;1.31;75.16
35918;BME280;22011;59.912;30.300;2023-04-01T01:46:19;100367.41;;;1.29;75.00
35918;BME280;22011;59.912;30.300;2023-04-01T01:48:50;100367.03;;;1.23;75.53
35918;BME280;22011;59.912;30.300;2023-04-01T01:51:21;100368.69;;;1.24;75.20
35918;BME280;22011;59.912;30.300;2023-04-01T01:53:49;100372.88;;;1.26;74.87
35918;BME280;22011;59.912;30.300;2023-04-01T01:56:22;100369.69;;;1.34;75.13
35918;BME280;22011;59.912;30.300;2023-04-01T01:58:54;100367.78;;;1.36;74.98
35918;BME280;22011;59.912;30.300;2023-04-01T02:01:27;100367.66;;;1.38;74.26
35918;BME280;22011;59.912;30.300;2023-04-01T02:04:00;100369.69;;;1.34;73.95
35918;BME280;22011;59.912;30.300;2023-04-01T02:06:31;100366.69;;;1.39;74.00
35918;BME280;22011;59.912;30.300;2023-04-01T02:09:02;100354.66;;;1.36;74.07
35918;BME280;22011;59.912;30.300;2023-04-01T02:11:34;100362.41;;;1.38;74.24
35918;BME280;22011;59.912;30.300;2023-04-01T02:14:06;100358.47;;;1.32;74.54
35918;BME280;22011;59.912;30.300;2023-04-01T02:16:42;100357.72;;;1.30;75.33
35918;BME280;22011;59.912;30.300;2023-04-01T02:19:12;100362.22;;;1.17;75.37
35918;BME280;22011;59.912;30.300;2023-04-01T02:21:42;100370.00;;;1.18;75.58
35918;BME280;22011;59.912;30.300;2023-04-01T02:24:13;100369.53;;;1.24;75.57
35918;BME280;22011;59.912;30.300;2023-04-01T02:26:42;100364.28;;;1.24;75.91
35918;BME280;22011;59.912;30.300;2023-04-01T02:29:11;100372.28;;;1.23;75.80
35918;BME280;22011;59.912;30.300;2023-04-01T02:31:39;100373.56;;;1.17;75.91
35918;BME280;22011;59.912;30.300;2023-04-01T02:34:08;100370.81;;;1.19;76.08
35918;BME280;22011;59.912;30.300;2023-04-01T02:36:36;100366.28;;;1.21;76.39
35918;BME280;22011;59.912;30.300;2023-04-01T02:39:08;100371.66;;;1.19;76.46
35918;BME280;22011;59.912;30.300;2023-04-01T02:41:39;100364.50;;;1.21;76.72
35918;BME280;22011;59.912;30.300;2023-04-01T02:44:07;100367.03;;;1.23;75.95
35918;BME280;22011;59.912;30.300;2023-04-01T02:46:36;100369.75;;;1.21;76.04
35918;BME280;22011;59.912;30.300;2023-04-01T02:49:04;100370.00;;;1.18;75.94
35918;BME280;22011;59.912;30.300;2023-04-01T02:51:32;100375.97;;;1.20;75.40
35918;BME280;22011;59.912;30.300;2023-04-01T02:54:00;100372.94;;;1.14;75.88
35918;BME280;22011;59.912;30.300;2023-04-01T02:56:30;100373.44;;;1.19;75.91
35918;BME280;22011;59.912;30.300;2023-04-01T02:58:57;100369.38;;;1.15;76.33
35918;BME280;22011;59.912;30.300;2023-04-01T03:01:25;100375.69;;;1.12;76.46
35918;BME280;22011;59.912;30.300;2023-04-01T03:03:52;100368.53;;;1.14;76.29
35918;BME280;22011;59.912;30.300;2023-04-01T03:06:20;100372.72;;;1.17;76.66
35918;BME280;22011;59.912;30.300;2023-04-01T03:08:47;100377.13;;;1.16;76.82
35918;BME280;22011;59.912;30.300;2023-04-01T03:11:15;100373.69;;;1.16;76.61
35918;BME280;22011;59.912;30.300;2023-04-01T03:13:44;100378.69;;;1.19;76.72
35918;BME280;22011;59.912;30.300;2023-04-01T03:16:12;100374.84;;;1.12;76.79
35918;BME280;22011;59.912;30.300;2023-04-01T03:18:39;100376.75;;;1.10;76.29
35918;BME280;22011;59.912;30.300;2023-04-01T03:21:15;100376.69;;;1.22;76.37
35918;BME280;22011;59.912;30.300;2023-04-01T03:23:43;100384.28;;;1.14;76.18
35918;BME280;22011;59.912;30.300;2023-04-01T03:26:10;100378.94;;;1.16;75.75
35918;BME280;22011;59.912;30.300;2023-04-01T03:28:38;100384.66;;;1.21;76.21
35918;BME280;22011;59.912;30.300;2023-04-01T03:31:07;100388.47;;;1.17;76.14
35918;BME280;22011;59.912;30.300;2023-04-01T03:33:41;100394.78;;;1.14;76.56
35918;BME280;22011;59.912;30.300;2023-04-01T03:36:08;100388.09;;;1.10;76.83
35918;BME280;22011;59.912;30.300;2023-04-01T03:38:38;100388.19;;;1.09;76.87
35918;BME280;22011;59.912;30.300;2023-04-01T03:41:07;100391.66;;;1.09;76.39
35918;BME280;22011;59.912;30.300;2023-04-01T03:43:38;100394.16;;;1.11;76.73
35918;BME280;22011;59.912;30.300;2023-04-01T03:46:07;100396.91;;;1.09;76.66
35918;BME280;22011;59.912;30.300;2023-04-01T03:48:35;100396.56;;;1.03;76.55
35918;BME280;22011;59.912;30.300;2023-04-01T03:51:06;100393.00;;;1.04;77.12
35918;BME280;22011;59.912;30.300;2023-04-01T03:53:34;100405.38;;;1.02;76.84
35918;BME280;22011;59.912;30.300;2023-04-01T03:56:05;100395.22;;;1.08;76.87
35918;BME280;22011;59.912;30.300;2023-04-01T03:58:36;100405.50;;;1.11;76.87
35918;BME280;22011;59.912;30.300;2023-04-01T04:01:18;100401.47;;;1.18;77.60
35918;BME280;22011;59.912;30.300;2023-04-01T04:03:48;100397.97;;;1.07;77.31
35918;BME280;22011;59.912;30.300;2023-04-01T04:06:17;100398.94;;;1.06;77.12
35918;BME280;22011;59.912;30.300;2023-04-01T04:08:45;100395.47;;;1.05;76.98
35918;BME280;22011;59.912;30.300;2023-04-01T04:11:13;100396.31;;;1.06;77.23
35918;BME280;22011;59.912;30.300;2023-04-01T04:13:42;100404.91;;;1.08;77.11
35918;BME280;22011;59.912;30.300;2023-04-01T04:16:12;100401.81;;;1.03;77.29
35918;BME280;22011;59.912;30.300;2023-04-01T04:18:46;100401.44;;;1.07;77.45
35918;BME280;22011;59.912;30.300;2023-04-01T04:21:15;100403.22;;;1.07;77.56
35918;BME280;22011;59.912;30.300;2023-04-01T04:23:43;100403.22;;;1.07;76.85
35918;BME280;22011;59.912;30.300;2023-04-01T04:26:14;100398.59;;;1.10;77.27
35918;BME280;22011;59.912;30.300;2023-04-01T04:28:45;100392.72;;;1.07;77.00
35918;BME280;22011;59.912;30.300;2023-04-01T04:31:18;100401.31;;;1.09;77.63
35918;BME280;22011;59.912;30.300;2023-04-01T04:33:48;100403.59;;;1.13;77.09
35918;BME280;22011;59.912;30.300;2023-04-01T04:36:16;100398.75;;;1.20;76.76
35918;BME280;22011;59.912;30.300;2023-04-01T04:38:44;100403.41;;;1.27;76.28
35918;BME280;22011;59.912;30.300;2023-04-01T04:41:12;100411.06;;;1.30;76.32
35918;BME280;22011;59.912;30.300;2023-04-01T04:43:41;100407.56;;;1.19;75.77
35918;BME280;22011;59.912;30.300;2023-04-01T04:46:10;100406.22;;;1.13;76.29
35918;BME280;22011;59.912;30.300;2023-04-01T04:48:38;100405.38;;;1.13;76.18
35918;BME280;22011;59.912;30.300;2023-04-01T04:51:07;100411.03;;;1.19;76.15
35918;BME280;22011;59.912;30.300;2023-04-01T04:53:35;100411.41;;;1.26;75.72
35918;BME280;22011;59.912;30.300;2023-04-01T04:56:02;100408.56;;;1.29;75.26
35918;BME280;22011;59.912;30.300;2023-04-01T04:58:41;100410.22;;;1.30;75.42
35918;BME280;22011;59.912;30.300;2023-04-01T05:01:15;100408.56;;;1.29;75.05
35918;BME280;22011;59.912;30.300;2023-04-01T05:03:44;100414.97;;;1.25;75.65
35918;BME280;22011;59.912;30.300;2023-04-01T05:06:14;100411.41;;;1.26;75.74
35918;BME280;22011;59.912;30.300;2023-04-01T05:08:44;100408.44;;;1.30;76.27
35918;BME280;22011;59.912;30.300;2023-04-01T05:11:15;100408.81;;;1.37;75.86
35918;BME280;22011;59.912;30.300;2023-04-01T05:13:44;100410.38;;;1.40;75.31
35918;BME280;22011;59.912;30.300;2023-04-01T05:16:14;100411.69;;;1.45;75.83
35918;BME280;22011;59.912;30.300;2023-04-01T05:18:43;100414.56;;;1.42;75.46
35918;BME280;22011;59.912;30.300;2023-04-01T05:21:15;100417.44;;;1.50;75.48
35918;BME280;22011;59.912;30.300;2023-04-01T05:23:43;100418.16;;;1.52;74.53
35918;BME280;22011;59.912;30.300;2023-04-01T05:26:13;100424.97;;;1.55;74.74
35918;BME280;22011;59.912;30.300;2023-04-01T05:28:42;100424.13;;;1.54;74.30
35918;BME280;22011;59.912;30.300;2023-04-01T05:31:09;100420.31;;;1.58;74.74
35918;BME280;22011;59.912;30.300;2023-04-01T05:33:39;100422.72;;;1.61;74.43
35918;BME280;22011;59.912;30.300;2023-04-01T05:36:08;100422.94;;;1.58;74.94
35918;BME280;22011;59.912;30.300;2023-04-01T05:38:38;100424.03;;;1.56;75.05
35918;BME280;22011;59.912;30.300;2023-04-01T05:41:09;100425.31;;;1.50;74.86
35918;BME280;22011;59.912;30.300;2023-04-01T05:43:41;100424.47;;;1.50;75.38
35918;BME280;22011;59.912;30.300;2023-04-01T05:46:32;100431.53;;;1.49;75.08
35918;BME280;22011;59.912;30.300;2023-04-01T05:49:11;100431.88;;;1.45;75.57
35918;BME280;22011;59.912;30.300;2023-04-01T05:51:38;100443.09;;;1.47;75.46
35918;BME280;22011;59.912;30.300;2023-04-01T05:54:07;100435.81;;;1.50;75.84
35918;BME280;22011;59.912;30.300;2023-04-01T05:56:38;100441.06;;;1.50;75.66
35918;BME280;22011;59.912;30.300;2023-04-01T05:59:05;100438.94;;;1.55;75.08
35918;BME280;22011;59.912;30.300;2023-04-01T06:01:33;100435.59;;;1.53;75.10
35918;BME280;22011;59.912;30.300;2023-04-01T06:04:03;100428.66;;;1.52;74.70
35918;BME280;22011;59.912;30.300;2023-04-01T06:06:31;100439.91;;;1.54;74.81
35918;BME280;22011;59.912;30.300;2023-04-01T06:09:14;100432.03;;;1.66;74.75
35918;BME280;22011;59.912;30.300;2023-04-01T06:12:00;100429.66;;;1.74;74.72
35918;BME280;22011;59.912;30.300;2023-04-01T06:14:39;100433.72;;;1.67;74.16
35918;BME280;22011;59.912;30.300;2023-04-01T06:17:26;100436.81;;;1.72;75.14
35918;BME280;22011;59.912;30.300;2023-04-01T06:20:02;100437.28;;;1.66;74.43
35918;BME280;22011;59.912;30.300;2023-04-01T06:22:43;100431.56;;;1.72;74.25
35918;BME280;22011;59.912;30.300;2023-04-01T06:25:45;100443.91;;;1.82;74.03
35918;BME280;22011;59.912;30.300;2023-04-01T06:28:39;100444.72;;;1.83;74.60
35918;BME280;22011;59.912;30.300;2023-04-01T06:31:21;100447.56;;;1.69;74.85
35918;BME280;22011;59.912;30.300;2023-04-01T06:34:14;100436.59;;;1.75;74.77
35918;BME280;22011;59.912;30.300;2023-04-01T06:40:09;100441.38;;;1.81;74.68
35918;BME280;22011;59.912;30.300;2023-04-01T06:42:53;100443.28;;;1.79;74.74
35918;BME280;22011;59.912;30.300;2023-04-01T06:45:52;100446.88;;;1.78;74.37
35918;BME280;22011;59.912;30.300;2023-04-01T06:48:53;100448.69;;;1.88;74.51
35918;BME280;22011;59.912;30.300;2023-04-01T06:51:49;100449.75;;;1.86;74.61
35918;BME280;22011;59.912;30.300;2023-04-01T06:54:42;100445.44;;;1.85;73.97
35918;BME280;22011;59.912;30.300;2023-04-01T06:57:32;100454.88;;;1.87;73.63
35918;BME280;22011;59.912;30.300;2023-04-01T07:00:11;100454.53;;;1.92;74.39
35918;BME280;22011;59.912;30.300;2023-04-01T07:02:43;100452.16;;;1.89;74.26
35918;BME280;22011;59.912;30.300;2023-04-01T07:05:15;100459.53;;;1.84;74.25
35918;BME280;22011;59.912;30.300;2023-04-01T07:07:44;100457.88;;;1.83;73.36
35918;BME280;22011;59.912;30.300;2023-04-01T07:10:17;100458.34;;;1.88;74.22
35918;BME280;22011;59.912;30.300;2023-04-01T07:13:23;100461.34;;;1.94;74.54
35918;BME280;22011;59.912;30.300;2023-04-01T07:16:05;100463.59;;;2.10;74.46
35918;BME280;22011;59.912;30.300;2023-04-01T07:18:42;100461.09;;;2.09;74.22
35918;BME280;22011;59.912;30.300;2023-04-01T07:21:29;100470.06;;;2.17;73.97
35918;BME280;22011;59.912;30.300;2023-04-01T07:24:04;100465.03;;;2.14;73.56
35918;BME280;22011;59.912;30.300;2023-04-01T07:26:38;100465.06;;;2.03;73.25
35918;BME280;22011;59.912;30.300;2023-04-01T07:29:09;100476.53;;;2.02;74.11
35918;BME280;22011;59.912;30.300;2023-04-01T07:32:15;100474.72;;;2.14;74.92
35918;BME280;22011;59.912;30.300;2023-04-01T07:34:52;100475.66;;;2.13;73.59
35918;BME280;22011;59.912;30.300;2023-04-01T07:37:28;100482.59;;;2.14;72.74
35918;BME280;22011;59.912;30.300;2023-04-01T07:40:07;100483.69;;;2.11;73.63
35918;BME280;22011;59.912;30.300;2023-04-01T07:42:50;100479.38;;;2.10;73.81
35918;BME280;22011;59.912;30.300;2023-04-01T07:45:24;100493.47;;;2.09;73.37
35918;BME280;22011;59.912;30.300;2023-04-01T07:48:12;100490.38;;;2.15;73.13
35918;BME280;22011;59.912;30.300;2023-04-01T07:50:50;100493.72;;;2.06;73.78
35918;BME280;22011;59.912;30.300;2023-04-01T07:53:26;100491.78;;;2.08;74.04
35918;BME280;22011;59.912;30.300;2023-04-01T07:56:04;100490.59;;;2.12;72.72
35918;BME280;22011;59.912;30.300;2023-04-01T07:58:43;100499.56;;;2.10;72.77
35918;BME280;22011;59.912;30.300;2023-04-01T08:01:35;100498.72;;;2.09;73.09
35918;BME280;22011;59.912;30.300;2023-04-01T08:04:25;100503.28;;;2.18;73.84
35918;BME280;22011;59.912;30.300;2023-04-01T08:07:00;100508.75;;;1.93;74.18
35918;BME280;22011;59.912;30.300;2023-04-01T08:09:43;100513.91;;;1.94;74.91
35918;BME280;22011;59.912;30.300;2023-04-01T08:12:37;100506.84;;;1.95;74.59
35918;BME280;22011;59.912;30.300;2023-04-01T08:15:32;100507.91;;;1.92;74.52
35918;BME280;22011;59.912;30.300;2023-04-01T08:18:17;100515.47;;;1.97;74.19
35918;BME280;22011;59.912;30.300;2023-04-01T08:20:52;100516.19;;;1.99;73.75
35918;BME280;22011;59.912;30.300;2023-04-01T08:23:26;100518.69;;;2.01;73.45
35918;BME280;22011;59.912;30.300;2023-04-01T08:26:04;100513.09;;;2.05;74.20
35918;BME280;22011;59.912;30.300;2023-04-01T08:28:41;100520.00;;;2.06;74.15
35918;BME280;22011;59.912;30.300;2023-04-01T08:31:14;100522.03;;;2.14;73.15
35918;BME280;22011;59.912;30.300;2023-04-01T08:33:46;100519.16;;;2.17;73.30
35918;BME280;22011;59.912;30.300;2023-04-01T08:36:19;100519.03;;;2.18;73.25
35918;BME280;22011;59.912;30.300;2023-04-01T08:39:03;100513.09;;;2.27;72.47
35918;BME280;22011;59.912;30.300;2023-04-01T08:41:54;100514.28;;;2.35;73.57
35918;BME280;22011;59.912;30.300;2023-04-01T08:45:33;100520.03;;;2.51;73.54
35918;BME280;22011;59.912;30.300;2023-04-01T08:48:19;100522.53;;;2.52;73.65
35918;BME280;22011;59.912;30.300;2023-04-01T08:51:12;100528.16;;;2.59;72.53
35918;BME280;22011;59.912;30.300;2023-04-01T08:53:56;100527.09;;;2.50;71.77
35918;BME280;22011;59.912;30.300;2023-04-01T08:56:31;100530.66;;;2.38;71.72
35918;BME280;22011;59.912;30.300;2023-04-01T08:59:15;100533.91;;;2.42;71.42
35918;BME280;22011;59.912;30.300;2023-04-01T09:02:04;100540.72;;;2.44;70.99
35918;BME280;22011;59.912;30.300;2023-04-01T09:05:37;100540.13;;;2.52;72.39
35918;BME280;22011;59.912;30.300;2023-04-01T09:08:21;100549.41;;;2.34;72.19
35918;BME280;22011;59.912;30.300;2023-04-01T09:11:01;100538.91;;;2.34;72.33
35918;BME280;22011;59.912;30.300;2023-04-01T09:19:56;100549.91;;;2.61;72.29
35918;BME280;22011;59.912;30.300;2023-04-01T09:22:48;100553.03;;;2.66;72.50
35918;BME280;22011;59.912;30.300;2023-04-01T09:25:41;100556.84;;;2.73;71.98
35918;BME280;22011;59.912;30.300;2023-04-01T09:28:18;100559.84;;;2.69;71.17
35918;BME280;22011;59.912;30.300;2023-04-01T09:31:11;100554.94;;;2.75;72.12
35918;BME280;22011;59.912;30.300;2023-04-01T09:34:25;100553.75;;;2.68;72.64
35918;BME280;22011;59.912;30.300;2023-04-01T09:37:18;100552.91;;;2.68;72.06
35918;BME280;22011;59.912;30.300;2023-04-01T09:40:02;100552.78;;;2.69;70.82
35918;BME280;22011;59.912;30.300;2023-04-01T09:42:44;100547.88;;;2.65;71.54
35918;BME280;22011;59.912;30.300;2023-04-01T09:45:37;100556.25;;;2.70;71.94
35918;BME280;22011;59.912;30.300;2023-04-01T09:48:20;100558.28;;;2.66;72.16
35918;BME280;22011;59.912;30.300;2023-04-01T09:50:53;100557.69;;;2.62;72.43
35918;BME280;22011;59.912;30.300;2023-04-01T09:53:36;100564.28;;;2.68;72.79
35918;BME280;22011;59.912;30.300;2023-04-01T09:56:52;100564.38;;;2.67;73.75
35918;BME280;22011;59.912;30.300;2023-04-01T09:59:51;100562.59;;;2.67;74.38
35918;BME280;22011;59.912;30.300;2023-04-01T10:03:05;100566.91;;;2.79;74.10
35918;BME280;22011;59.912;30.300;2023-04-01T10:12:23;100575.69;;;3.23;72.00
35918;BME280;22011;59.912;30.300;2023-04-01T10:21:29;100579.31;;;3.11;71.17
35918;BME280;22011;59.912;30.300;2023-04-01T10:28:04;100584.06;;;3.28;71.94
35918;BME280;22011;59.912;30.300;2023-04-01T10:31:18;100586.47;;;3.20;71.54
35918;BME280;22011;59.912;30.300;2023-04-01T10:34:25;100588.25;;;3.19;71.86
35918;BME280;22011;59.912;30.300;2023-04-01T10:37:13;100587.69;;;3.05;71.59
35918;BME280;22011;59.912;30.300;2023-04-01T10:40:13;100595.72;;;3.03;71.87
35918;BME280;22011;59.912;30.300;2023-04-01T10:43:57;100598.22;;;3.05;72.58
35918;BME280;22011;59.912;30.300;2023-04-01T10:47:18;100591.53;;;3.01;72.21
35918;BME280;22011;59.912;30.300;2023-04-01T10:50:13;100593.94;;;2.92;71.88
35918;BME280;22011;59.912;30.300;2023-04-01T10:56:34;100600.16;;;2.80;72.16
35918;BME280;22011;59.912;30.300;2023-04-01T10:59:46;100601.59;;;2.84;71.51
35918;BME280;22011;59.912;30.300;2023-04-01T11:03:07;100605.53;;;2.90;71.18
35918;BME280;22011;59.912;30.300;2023-04-01T11:09:47;100611.16;;;2.97;71.29
35918;BME280;22011;59.912;30.300;2023-04-01T11:25:11;100619.53;;;2.90;70.27
35918;BME280;22011;59.912;30.300;2023-04-01T11:28:16;100625.88;;;2.99;71.16
35918;BME280;22011;59.912;30.300;2023-04-01T11:31:09;100623.47;;;2.96;71.87
35918;BME280;22011;59.912;30.300;2023-04-01T11:33:44;100626.34;;;2.93;70.06
35918;BME280;22011;59.912;30.300;2023-04-01T11:36:25;100623.00;;;3.02;70.61
35918;BME280;22011;59.912;30.300;2023-04-01T11:39:17;100624.06;;;3.11;70.17
35918;BME280;22011;59.912;30.300;2023-04-01T11:42:18;100623.13;;;3.12;70.31
35918;BME280;22011;59.912;30.300;2023-04-01T11:45:15;100627.78;;;3.08;69.64
35918;BME280;22011;59.912;30.300;2023-04-01T11:48:03;100632.16;;;3.19;69.85
35918;BME280;22011;59.912;30.300;2023-04-01T11:50:46;100638.28;;;3.19;69.25
35918;BME280;22011;59.912;30.300;2023-04-01T11:53:31;100631.22;;;3.20;70.27
35918;BME280;22011;59.912;30.300;2023-04-01T11:56:32;100638.75;;;3.24;70.29
35918;BME280;22011;59.912;30.300;2023-04-01T12:02:11;100644.38;;;3.20;68.70
35918;BME280;22011;59.912;30.300;2023-04-01T12:05:08;100650.84;;;3.27;69.77
35918;BME280;22011;59.912;30.300;2023-04-01T12:07:57;100645.47;;;3.17;69.77
35918;BME280;22011;59.912;30.300;2023-04-01T12:10:38;100651.56;;;3.18;68.85
35918;BME280;22011;59.912;30.300;2023-04-01T12:13:16;100645.22;;;3.20;68.89
35918;BME280;22011;59.912;30.300;2023-04-01T12:16:03;100651.31;;;3.21;69.16
35918;BME280;22011;59.912;30.300;2023-04-01T12:18:38;100652.31;;;3.09;68.85
35918;BME280;22011;59.912;30.300;2023-04-01T12:21:20;100646.28;;;3.18;68.79
35918;BME280;22011;59.912;30.300;2023-04-01T12:24:18;100658.63;;;3.28;68.38
35918;BME280;22011;59.912;30.300;2023-04-01T12:26:59;100651.31;;;3.21;68.70
35918;BME280;22011;59.912;30.300;2023-04-01T12:29:47;100660.19;;;3.20;68.84
35918;BME280;22011;59.912;30.300;2023-04-01T12:32:27;100657.06;;;3.15;67.76
35918;BME280;22011;59.912;30.300;2023-04-01T12:35:13;100668.56;;;3.14;69.31
35918;BME280;22011;59.912;30.300;2023-04-01T12:37:50;100667.84;;;3.01;69.81
35918;BME280;22011;59.912;30.300;2023-04-01T12:46:13;100673.38;;;3.09;68.65
35918;BME280;22011;59.912;30.300;2023-04-01T12:51:57;100673.81;;;3.25;68.09
35918;BME280;22011;59.912;30.300;2023-04-01T12:58:00;100680.53;;;3.29;68.19
35918;BME280;22011;59.912;30.300;2023-04-01T13:00:46;100686.03;;;3.26;66.97
35918;BME280;22011;59.912;30.300;2023-04-01T13:03:32;100688.66;;;3.26;66.87
35918;BME280;22011;59.912;30.300;2023-04-01T13:06:25;100693.91;;;3.37;67.06
35918;BME280;22011;59.912;30.300;2023-04-01T13:09:04;100694.03;;;3.36;65.91
35918;BME280;22011;59.912;30.300;2023-04-01T13:11:42;100699.66;;;3.31;67.14
35918;BME280;22011;59.912;30.300;2023-04-01T13:14:50;100693.91;;;3.37;67.32
35918;BME280;22011;59.912;30.300;2023-04-01T13:17:26;100692.59;;;3.32;64.52
35918;BME280;22011;59.912;30.300;2023-04-01T13:20:02;100697.03;;;3.42;63.31
35918;BME280;22011;59.912;30.300;2023-04-01T13:22:45;100702.28;;;3.53;64.25
35918;BME280;22011;59.912;30.300;2023-04-01T13:25:24;100703.13;;;3.54;63.85
35918;BME280;22011;59.912;30.300;2023-04-01T13:28:00;100707.56;;;3.53;62.17
35918;BME280;22011;59.912;30.300;2023-04-01T13:30:34;100711.28;;;3.51;63.27
35918;BME280;22011;59.912;30.300;2023-04-01T13:33:10;100711.88;;;3.54;63.90
35918;BME280;22011;59.912;30.300;2023-04-01T13:35:46;100712.47;;;3.58;63.36
35918;BME280;22011;59.912;30.300;2023-04-01T13:41:34;100715.19;;;3.79;64.10
35918;BME280;22011;59.912;30.300;2023-04-01T13:44:11;100713.28;;;3.70;62.91
35918;BME280;22011;59.912;30.300;2023-04-01T13:47:05;100717.47;;;3.83;62.20
35918;BME280;22011;59.912;30.300;2023-04-01T13:49:53;100728.72;;;3.85;60.99
35918;BME280;22011;59.912;30.300;2023-04-01T13:52:41;100730.50;;;3.85;60.60
35918;BME280;22011;59.912;30.300;2023-04-01T13:55:28;100726.31;;;3.82;59.90
35918;BME280;22011;59.912;30.300;2023-04-01T13:58:17;100724.16;;;3.87;58.33
35918;BME280;22011;59.912;30.300;2023-04-01T14:00:54;100731.59;;;3.82;57.27
35918;BME280;22011;59.912;30.300;2023-04-01T14:03:43;100731.59;;;3.82;59.17
35918;BME280;22011;59.912;30.300;2023-04-01T14:06:26;100730.16;;;3.78;57.14
35918;BME280;22011;59.912;30.300;2023-04-01T14:09:10;100732.09;;;3.76;56.89
35918;BME280;22011;59.912;30.300;2023-04-01T14:11:52;100738.19;;;3.77;58.31
35918;BME280;22011;59.912;30.300;2023-04-01T14:14:28;100737.00;;;3.70;58.43
35918;BME280;22011;59.912;30.300;2023-04-01T14:17:10;100741.69;;;3.66;59.90
35918;BME280;22011;59.912;30.300;2023-04-01T14:20:02;100738.09;;;3.67;58.55
35918;BME280;22011;59.912;30.300;2023-04-01T14:22:41;100747.66;;;3.57;55.03
35918;BME280;22011;59.912;30.300;2023-04-01T14:25:30;100748.63;;;3.67;56.19
35918;BME280;22011;59.912;30.300;2023-04-01T14:28:15;100746.94;;;3.66;56.57
35918;BME280;22011;59.912;30.300;2023-04-01T14:30:59;100748.25;;;3.72;55.52
35918;BME280;22011;59.912;30.300;2023-04-01T14:33:39;100754.00;;;3.77;55.81
35918;BME280;22011;59.912;30.300;2023-04-01T14:36:29;100760.81;;;3.79;53.91
35918;BME280;22011;59.912;30.300;2023-04-01T14:39:12;100764.78;;;3.74;53.56
35918;BME280;22011;59.912;30.300;2023-04-01T14:41:47;100760.00;;;3.68;48.85
35918;BME280;22011;59.912;30.300;2023-04-01T14:47:33;100771.50;;;3.78;48.88
35918;BME280;22011;59.912;30.300;2023-04-01T14:50:11;100771.97;;;3.72;49.02
35918;BME280;22011;59.912;30.300;2023-04-01T14:52:42;100778.81;;;3.63;47.84
35918;BME280;22011;59.912;30.300;2023-04-01T14:55:21;100779.88;;;3.72;49.35
35918;BME280;22011;59.912;30.300;2023-04-01T14:57:59;100783.47;;;3.71;51.24
35918;BME280;22011;59.912;30.300;2023-04-01T15:00:27;100783.22;;;3.63;48.34